Ana Sayfa
METAR-TAF:

METAR-TAF

Havaalanları :

Millington, Tennessee, Amerika Birleşik Devletleri

Enlem: 35-21-24N, Boylam: 089-52-13W, yükseklik: 98 m

Güncel hava durumu gözlemi

Rapor saat 16:50 UTC de 16 dakika önce yapıldı.
Rüzgar batıdan 6 kt
Sıcaklık 21°C
Nem 88%
Basınç 1012 hPa
Görüş mesafesi: 16.1 km
1600 ft yükseklikte parçalı bulutlu
2100 ft yükseklikte parçalı çok bulutlu
5000 ft yükseklikte çok bulutlu

METAR: KNQA 181650Z 28006KT 10SM SCT016 BKN021 OVC050 21/19 A2987

Saat: 12:06 (17:06 UTC)


TAF: eksik

4.000'den fazla havaalanı için hava durumu gözlemleri ve tahminleri (METAR ve TAF raporları).

Kullanılabilir istasyonlar harita üzerinde sarı ve kırmızı noktalarla gösterilir.

İstasyonun adını görmek için fareyi noktanın üzerinde gezdirin.

Sonrasında hava gözlem ve tahminlerini görmek için tıklayın.

Haritayı değiştirmek için: yaklaştırmak için siyah artı işaretli yeşil düğmeye ve uzaklaştırmak için de eksi işaretli düğmeye hızla tıklayın; bitişik haritalar için yeşil okları kullanın.


METAR-TAF: